sensor_id;sensor_type;location;lat;lon;timestamp;pressure;altitude;pressure_sealevel;temperature;humidity
55540;BME280;41384;51.418;7.286;2023-04-10T00:02:07;100484.06;;;9.34;59.58
55540;BME280;41384;51.418;7.286;2023-04-10T00:04:32;100481.25;;;9.51;59.50
55540;BME280;41384;51.418;7.286;2023-04-10T00:06:57;100478.28;;;9.39;59.68
55540;BME280;41384;51.418;7.286;2023-04-10T00:09:23;100478.91;;;9.41;59.73
55540;BME280;41384;51.418;7.286;2023-04-10T00:11:48;100470.38;;;9.39;59.83
55540;BME280;41384;51.418;7.286;2023-04-10T00:14:13;100465.47;;;9.36;60.18
55540;BME280;41384;51.418;7.286;2023-04-10T00:16:38;100468.88;;;9.21;60.49
55540;BME280;41384;51.418;7.286;2023-04-10T00:19:04;100463.25;;;9.24;60.65
55540;BME280;41384;51.418;7.286;2023-04-10T00:21:29;100460.72;;;9.31;60.39
55540;BME280;41384;51.418;7.286;2023-04-10T00:23:55;100461.72;;;9.30;60.45
55540;BME280;41384;51.418;7.286;2023-04-10T00:26:20;100455.56;;;9.23;60.21
55540;BME280;41384;51.418;7.286;2023-04-10T00:28:47;100455.66;;;9.14;60.54
55540;BME280;41384;51.418;7.286;2023-04-10T00:31:13;100452.81;;;9.16;60.35
55540;BME280;41384;51.418;7.286;2023-04-10T00:33:38;100447.91;;;9.13;60.55
55540;BME280;41384;51.418;7.286;2023-04-10T00:36:03;100450.38;;;9.14;61.08
55540;BME280;41384;51.418;7.286;2023-04-10T00:38:29;100443.13;;;9.16;60.63
55540;BME280;41384;51.418;7.286;2023-04-10T00:40:54;100442.28;;;9.31;60.50
55540;BME280;41384;51.418;7.286;2023-04-10T00:43:21;100436.84;;;9.17;60.95
55540;BME280;41384;51.418;7.286;2023-04-10T00:45:46;100431.47;;;9.11;61.05
55540;BME280;41384;51.418;7.286;2023-04-10T00:48:12;100428.56;;;9.05;61.24
55540;BME280;41384;51.418;7.286;2023-04-10T00:50:37;100424.13;;;9.06;60.70
55540;BME280;41384;51.418;7.286;2023-04-10T00:53:02;100431.38;;;8.89;61.49
55540;BME280;41384;51.418;7.286;2023-04-10T00:55:27;100424.03;;;9.14;61.53
55540;BME280;41384;51.418;7.286;2023-04-10T00:57:54;100420.31;;;9.09;61.00
55540;BME280;41384;51.418;7.286;2023-04-10T01:00:20;100426.56;;;9.08;60.50
55540;BME280;41384;51.418;7.286;2023-04-10T01:02:45;100421.56;;;9.13;60.73
55540;BME280;41384;51.418;7.286;2023-04-10T01:05:12;100424.03;;;8.99;60.88
55540;BME280;41384;51.418;7.286;2023-04-10T01:07:48;100423.56;;;9.11;60.99
55540;BME280;41384;51.418;7.286;2023-04-10T01:10:28;100420.22;;;9.17;60.75
55540;BME280;41384;51.418;7.286;2023-04-10T01:13:15;100416.84;;;9.23;60.53
55540;BME280;41384;51.418;7.286;2023-04-10T01:15:57;100414.78;;;9.18;60.24
55540;BME280;41384;51.418;7.286;2023-04-10T01:18:49;100410.94;;;9.21;59.96
55540;BME280;41384;51.418;7.286;2023-04-10T01:21:18;100416.69;;;9.25;59.79
55540;BME280;41384;51.418;7.286;2023-04-10T01:23:55;100405.06;;;9.04;60.32
55540;BME280;41384;51.418;7.286;2023-04-10T01:29:51;100428.31;;;9.15;60.01
55540;BME280;41384;51.418;7.286;2023-04-10T01:32:21;100418.41;;;9.17;59.85
55540;BME280;41384;51.418;7.286;2023-04-10T01:34:49;100411.50;;;9.31;59.87
55540;BME280;41384;51.418;7.286;2023-04-10T01:37:20;100407.41;;;9.29;59.10
55540;BME280;41384;51.418;7.286;2023-04-10T01:39:49;100406.34;;;9.08;59.88
55540;BME280;41384;51.418;7.286;2023-04-10T01:42:15;100397.13;;;9.19;59.48
55540;BME280;41384;51.418;7.286;2023-04-10T01:44:43;100392.59;;;9.13;59.78
55540;BME280;41384;51.418;7.286;2023-04-10T01:47:13;100384.34;;;9.16;59.49
55540;BME280;41384;51.418;7.286;2023-04-10T01:49:40;100380.16;;;9.22;59.98
55540;BME280;41384;51.418;7.286;2023-04-10T01:52:10;100376.72;;;9.06;59.73
55540;BME280;41384;51.418;7.286;2023-04-10T01:54:36;100373.63;;;9.17;59.76
55540;BME280;41384;51.418;7.286;2023-04-10T01:57:03;100379.72;;;9.03;59.91
55540;BME280;41384;51.418;7.286;2023-04-10T01:59:28;100372.72;;;8.95;59.67
55540;BME280;41384;51.418;7.286;2023-04-10T02:01:59;100371.63;;;9.04;59.88
55540;BME280;41384;51.418;7.286;2023-04-10T02:04:25;100370.16;;;9.17;59.73
55540;BME280;41384;51.418;7.286;2023-04-10T02:07:19;100374.16;;;9.13;59.17
55540;BME280;41384;51.418;7.286;2023-04-10T02:10:08;100374.47;;;9.03;59.45
55540;BME280;41384;51.418;7.286;2023-04-10T02:12:38;100371.53;;;9.13;59.88
55540;BME280;41384;51.418;7.286;2023-04-10T02:15:05;100377.91;;;9.03;59.64
55540;BME280;41384;51.418;7.286;2023-04-10T02:17:33;100374.56;;;8.95;59.63
55540;BME280;41384;51.418;7.286;2023-04-10T02:20:01;100370.19;;;9.02;59.66
55540;BME280;41384;51.418;7.286;2023-04-10T02:22:27;100372.34;;;8.98;59.27
55540;BME280;41384;51.418;7.286;2023-04-10T02:24:53;100367.28;;;8.97;59.58
55540;BME280;41384;51.418;7.286;2023-04-10T02:27:32;100370.09;;;8.95;59.90
55540;BME280;41384;51.418;7.286;2023-04-10T02:29:58;100358.56;;;8.96;59.65
55540;BME280;41384;51.418;7.286;2023-04-10T02:32:24;100361.66;;;9.00;59.14
55540;BME280;41384;51.418;7.286;2023-04-10T02:34:49;100358.56;;;9.11;60.33
55540;BME280;41384;51.418;7.286;2023-04-10T02:37:15;100357.66;;;9.04;59.18
55540;BME280;41384;51.418;7.286;2023-04-10T02:39:40;100354.84;;;9.05;59.04
55540;BME280;41384;51.418;7.286;2023-04-10T02:42:06;100349.75;;;9.04;59.18
55540;BME280;41384;51.418;7.286;2023-04-10T02:44:31;100353.66;;;9.08;59.06
55540;BME280;41384;51.418;7.286;2023-04-10T02:46:56;100347.03;;;8.97;59.23
55540;BME280;41384;51.418;7.286;2023-04-10T02:49:22;100351.56;;;9.03;59.05
55540;BME280;41384;51.418;7.286;2023-04-10T02:51:47;100341.22;;;9.02;59.10
55540;BME280;41384;51.418;7.286;2023-04-10T02:54:12;100352.56;;;9.02;58.95
55540;BME280;41384;51.418;7.286;2023-04-10T02:56:37;100354.72;;;9.14;58.93
55540;BME280;41384;51.418;7.286;2023-04-10T02:59:03;100355.84;;;9.19;58.48
55540;BME280;41384;51.418;7.286;2023-04-10T03:01:28;100364.72;;;9.18;58.23
55540;BME280;41384;51.418;7.286;2023-04-10T03:03:53;100357.19;;;9.15;58.43
55540;BME280;41384;51.418;7.286;2023-04-10T03:06:19;100349.19;;;9.09;58.98
55540;BME280;41384;51.418;7.286;2023-04-10T03:08:45;100346.09;;;9.20;58.39
55540;BME280;41384;51.418;7.286;2023-04-10T03:11:10;100356.47;;;9.22;59.19
55540;BME280;41384;51.418;7.286;2023-04-10T03:13:35;100349.28;;;9.15;58.63
55540;BME280;41384;51.418;7.286;2023-04-10T03:16:01;100350.41;;;9.06;58.84
55540;BME280;41384;51.418;7.286;2023-04-10T03:18:26;100335.13;;;9.16;58.52
55540;BME280;41384;51.418;7.286;2023-04-10T03:20:51;100339.28;;;9.11;58.39
55540;BME280;41384;51.418;7.286;2023-04-10T03:23:17;100335.13;;;9.16;58.21
55540;BME280;41384;51.418;7.286;2023-04-10T03:25:42;100338.94;;;9.14;58.36
55540;BME280;41384;51.418;7.286;2023-04-10T03:28:08;100327.41;;;9.15;58.44
55540;BME280;41384;51.418;7.286;2023-04-10T03:30:33;100331.41;;;9.11;58.29
55540;BME280;41384;51.418;7.286;2023-04-10T03:33:01;100328.69;;;9.04;58.18
55540;BME280;41384;51.418;7.286;2023-04-10T03:35:26;100330.13;;;9.07;58.32
55540;BME280;41384;51.418;7.286;2023-04-10T03:37:51;100320.97;;;9.17;58.51
55540;BME280;41384;51.418;7.286;2023-04-10T03:40:17;100324.88;;;9.07;58.30
55540;BME280;41384;51.418;7.286;2023-04-10T03:42:42;100309.69;;;9.24;58.08
55540;BME280;41384;51.418;7.286;2023-04-10T03:45:08;100310.53;;;9.09;58.33
55540;BME280;41384;51.418;7.286;2023-04-10T03:47:33;100314.59;;;9.12;58.25
55540;BME280;41384;51.418;7.286;2023-04-10T03:49:58;100307.41;;;9.20;58.33
55540;BME280;41384;51.418;7.286;2023-04-10T03:52:24;100309.28;;;9.05;58.72
55540;BME280;41384;51.418;7.286;2023-04-10T03:54:50;100298.53;;;9.07;58.33
55540;BME280;41384;51.418;7.286;2023-04-10T03:57:16;100306.31;;;9.15;59.16
55540;BME280;41384;51.418;7.286;2023-04-10T03:59:42;100299.09;;;9.02;58.18
55540;BME280;41384;51.418;7.286;2023-04-10T04:02:08;100307.31;;;9.14;58.05
55540;BME280;41384;51.418;7.286;2023-04-10T04:04:33;100302.69;;;9.16;58.79
55540;BME280;41384;51.418;7.286;2023-04-10T04:06:58;100307.53;;;9.12;58.04
55540;BME280;41384;51.418;7.286;2023-04-10T04:09:23;100300.16;;;9.08;58.91
55540;BME280;41384;51.418;7.286;2023-04-10T04:11:49;100302.91;;;8.99;58.51
55540;BME280;41384;51.418;7.286;2023-04-10T04:14:14;100307.06;;;9.09;58.28
55540;BME280;41384;51.418;7.286;2023-04-10T04:16:39;100299.53;;;9.05;58.38
55540;BME280;41384;51.418;7.286;2023-04-10T04:19:04;100306.38;;;9.00;58.71
55540;BME280;41384;51.418;7.286;2023-04-10T04:21:30;100297.91;;;9.04;58.79
55540;BME280;41384;51.418;7.286;2023-04-10T04:23:55;100296.75;;;8.92;58.50
55540;BME280;41384;51.418;7.286;2023-04-10T04:26:20;100289.47;;;8.94;58.48
55540;BME280;41384;51.418;7.286;2023-04-10T04:28:46;100286.56;;;8.89;58.77
55540;BME280;41384;51.418;7.286;2023-04-10T04:31:11;100286.03;;;8.94;58.63
55540;BME280;41384;51.418;7.286;2023-04-10T04:33:36;100283.94;;;8.89;59.51
55540;BME280;41384;51.418;7.286;2023-04-10T04:36:02;100288.03;;;8.92;59.23
55540;BME280;41384;51.418;7.286;2023-04-10T04:38:27;100276.41;;;8.86;59.00
55540;BME280;41384;51.418;7.286;2023-04-10T04:40:52;100277.31;;;8.78;58.49
55540;BME280;41384;51.418;7.286;2023-04-10T04:43:17;100271.25;;;8.78;59.32
55540;BME280;41384;51.418;7.286;2023-04-10T04:45:43;100270.41;;;8.92;59.83
55540;BME280;41384;51.418;7.286;2023-04-10T04:48:08;100276.47;;;9.08;58.91
55540;BME280;41384;51.418;7.286;2023-04-10T04:50:33;100273.03;;;9.07;58.73
55540;BME280;41384;51.418;7.286;2023-04-10T04:52:59;100269.81;;;9.12;58.30
55540;BME280;41384;51.418;7.286;2023-04-10T04:55:24;100267.97;;;9.27;58.37
55540;BME280;41384;51.418;7.286;2023-04-10T04:57:50;100265.00;;;9.30;58.68
55540;BME280;41384;51.418;7.286;2023-04-10T05:00:15;100272.06;;;9.30;57.64
55540;BME280;41384;51.418;7.286;2023-04-10T05:02:40;100265.66;;;9.39;57.76
55540;BME280;41384;51.418;7.286;2023-04-10T05:05:06;100260.41;;;9.39;57.92
55540;BME280;41384;51.418;7.286;2023-04-10T05:07:31;100271.25;;;9.29;59.97
55540;BME280;41384;51.418;7.286;2023-04-10T05:09:57;100268.34;;;9.24;59.86
55540;BME280;41384;51.418;7.286;2023-04-10T05:12:22;100263.44;;;9.21;60.98
55540;BME280;41384;51.418;7.286;2023-04-10T05:14:47;100263.06;;;9.24;61.32
55540;BME280;41384;51.418;7.286;2023-04-10T05:17:12;100265.38;;;9.12;61.87
55540;BME280;41384;51.418;7.286;2023-04-10T05:19:39;100268.31;;;9.02;62.83
55540;BME280;41384;51.418;7.286;2023-04-10T05:22:04;100259.66;;;9.09;60.75
55540;BME280;41384;51.418;7.286;2023-04-10T05:24:30;100267.09;;;9.20;58.85
55540;BME280;41384;51.418;7.286;2023-04-10T05:26:55;100260.75;;;9.14;59.88
55540;BME280;41384;51.418;7.286;2023-04-10T05:29:21;100263.34;;;9.29;58.95
55540;BME280;41384;51.418;7.286;2023-04-10T05:31:47;100270.59;;;9.27;57.31
55540;BME280;41384;51.418;7.286;2023-04-10T05:34:12;100271.41;;;9.06;57.35
55540;BME280;41384;51.418;7.286;2023-04-10T05:36:38;100276.66;;;9.06;57.35
55540;BME280;41384;51.418;7.286;2023-04-10T05:39:03;100281.38;;;9.11;56.33
55540;BME280;41384;51.418;7.286;2023-04-10T05:41:28;100277.66;;;9.05;56.51
55540;BME280;41384;51.418;7.286;2023-04-10T05:43:53;100276.66;;;9.06;56.57
55540;BME280;41384;51.418;7.286;2023-04-10T05:46:19;100283.88;;;9.19;56.60
55540;BME280;41384;51.418;7.286;2023-04-10T05:48:44;100276.81;;;9.19;56.63
55540;BME280;41384;51.418;7.286;2023-04-10T05:51:09;100278.81;;;9.17;55.92
55540;BME280;41384;51.418;7.286;2023-04-10T05:53:34;100270.34;;;9.22;56.58
55540;BME280;41384;51.418;7.286;2023-04-10T05:56:00;100271.41;;;9.06;56.20
55540;BME280;41384;51.418;7.286;2023-04-10T05:58:27;100267.81;;;9.14;56.24
55540;BME280;41384;51.418;7.286;2023-04-10T06:00:52;100265.44;;;9.19;56.11
55540;BME280;41384;51.418;7.286;2023-04-10T06:03:17;100262.19;;;9.17;57.09
55540;BME280;41384;51.418;7.286;2023-04-10T06:05:44;100266.44;;;9.18;56.42
55540;BME280;41384;51.418;7.286;2023-04-10T06:08:09;100264.69;;;9.25;55.86
55540;BME280;41384;51.418;7.286;2023-04-10T06:10:35;100264.28;;;9.22;56.38
55540;BME280;41384;51.418;7.286;2023-04-10T06:13:00;100262.22;;;9.39;55.72
55540;BME280;41384;51.418;7.286;2023-04-10T06:15:26;100258.78;;;9.38;55.82
55540;BME280;41384;51.418;7.286;2023-04-10T06:17:51;100265.50;;;9.41;55.60
55540;BME280;41384;51.418;7.286;2023-04-10T06:20:18;100270.00;;;9.47;55.53
55540;BME280;41384;51.418;7.286;2023-04-10T06:22:43;100267.19;;;9.48;55.48
55540;BME280;41384;51.418;7.286;2023-04-10T06:25:08;100263.78;;;9.55;55.73
55540;BME280;41384;51.418;7.286;2023-04-10T06:27:34;100255.44;;;9.73;55.48
55540;BME280;41384;51.418;7.286;2023-04-10T06:30:02;100253.50;;;9.82;55.66
55540;BME280;41384;51.418;7.286;2023-04-10T06:32:27;100248.63;;;9.78;55.60
55540;BME280;41384;51.418;7.286;2023-04-10T06:34:53;100239.63;;;9.73;55.12
55540;BME280;41384;51.418;7.286;2023-04-10T06:37:18;100242.13;;;9.81;55.17
55540;BME280;41384;51.418;7.286;2023-04-10T06:39:43;100239.72;;;9.86;54.74
55540;BME280;41384;51.418;7.286;2023-04-10T06:42:09;100232.03;;;9.85;54.54
55540;BME280;41384;51.418;7.286;2023-04-10T06:44:34;100249.28;;;9.87;54.77
55540;BME280;41384;51.418;7.286;2023-04-10T06:46:59;100242.00;;;9.89;54.50
55540;BME280;41384;51.418;7.286;2023-04-10T06:49:25;100242.69;;;9.98;54.81
55540;BME280;41384;51.418;7.286;2023-04-10T06:51:50;100253.22;;;9.98;54.81
55540;BME280;41384;51.418;7.286;2023-04-10T06:54:15;100238.59;;;9.96;54.27
55540;BME280;41384;51.418;7.286;2023-04-10T06:56:41;100245.09;;;10.00;53.96
55540;BME280;41384;51.418;7.286;2023-04-10T06:59:06;100253.50;;;10.10;54.49
55540;BME280;41384;51.418;7.286;2023-04-10T07:01:31;100249.28;;;10.16;54.25
55540;BME280;41384;51.418;7.286;2023-04-10T07:03:56;100253.78;;;10.22;53.87
55540;BME280;41384;51.418;7.286;2023-04-10T07:06:22;100249.19;;;10.31;53.83
55540;BME280;41384;51.418;7.286;2023-04-10T07:08:48;100248.22;;;10.39;53.09
55540;BME280;41384;51.418;7.286;2023-04-10T07:11:13;100251.94;;;10.44;53.58
55540;BME280;41384;51.418;7.286;2023-04-10T07:13:39;100248.31;;;10.52;52.52
55540;BME280;41384;51.418;7.286;2023-04-10T07:16:05;100236.56;;;10.55;52.98
55540;BME280;41384;51.418;7.286;2023-04-10T07:18:32;100247.19;;;10.68;52.91
55540;BME280;41384;51.418;7.286;2023-04-10T07:20:57;100234.19;;;10.73;52.40
55540;BME280;41384;51.418;7.286;2023-04-10T07:23:22;100232.00;;;10.84;52.38
55540;BME280;41384;51.418;7.286;2023-04-10T07:25:48;100212.72;;;10.90;51.63
55540;BME280;41384;51.418;7.286;2023-04-10T07:28:13;100210.47;;;10.87;50.65
55540;BME280;41384;51.418;7.286;2023-04-10T07:30:38;100206.66;;;10.89;50.26
55540;BME280;41384;51.418;7.286;2023-04-10T07:33:03;100186.75;;;10.93;50.15
55540;BME280;41384;51.418;7.286;2023-04-10T07:35:29;100193.44;;;10.96;50.60
55540;BME280;41384;51.418;7.286;2023-04-10T07:37:54;100194.66;;;10.93;49.73
55540;BME280;41384;51.418;7.286;2023-04-10T07:40:19;100201.19;;;10.98;49.45
55540;BME280;41384;51.418;7.286;2023-04-10T07:42:45;100198.75;;;11.03;48.91
55540;BME280;41384;51.418;7.286;2023-04-10T07:45:10;100194.09;;;11.05;48.91
55540;BME280;41384;51.418;7.286;2023-04-10T07:47:36;100202.44;;;11.15;49.23
55540;BME280;41384;51.418;7.286;2023-04-10T07:50:01;100186.00;;;11.20;48.71
55540;BME280;41384;51.418;7.286;2023-04-10T07:52:27;100178.47;;;11.23;49.56
55540;BME280;41384;51.418;7.286;2023-04-10T07:54:52;100185.59;;;11.36;48.81
55540;BME280;41384;51.418;7.286;2023-04-10T07:57:17;100165.25;;;11.37;47.78
55540;BME280;41384;51.418;7.286;2023-04-10T07:59:42;100167.50;;;11.33;47.81
55540;BME280;41384;51.418;7.286;2023-04-10T08:02:08;100169.94;;;11.35;47.26
55540;BME280;41384;51.418;7.286;2023-04-10T08:04:33;100162.84;;;11.35;47.49
55540;BME280;41384;51.418;7.286;2023-04-10T08:06:58;100159.19;;;11.36;47.78
55540;BME280;41384;51.418;7.286;2023-04-10T08:09:24;100160.19;;;11.35;47.33
55540;BME280;41384;51.418;7.286;2023-04-10T08:11:49;100155.72;;;11.36;47.21
55540;BME280;41384;51.418;7.286;2023-04-10T08:14:14;100158.75;;;11.33;46.92
55540;BME280;41384;51.418;7.286;2023-04-10T08:16:39;100149.63;;;11.35;47.19
55540;BME280;41384;51.418;7.286;2023-04-10T08:19:05;100147.19;;;11.41;47.31
55540;BME280;41384;51.418;7.286;2023-04-10T08:21:30;100132.94;;;11.48;47.41
55540;BME280;41384;51.418;7.286;2023-04-10T08:23:58;100138.66;;;11.59;47.36
55540;BME280;41384;51.418;7.286;2023-04-10T08:26:24;100143.50;;;11.68;47.44
55540;BME280;41384;51.418;7.286;2023-04-10T08:28:51;100137.59;;;11.73;46.36
55540;BME280;41384;51.418;7.286;2023-04-10T08:31:18;100130.44;;;11.87;45.51
55540;BME280;41384;51.418;7.286;2023-04-10T08:33:43;100135.31;;;11.97;46.22
55540;BME280;41384;51.418;7.286;2023-04-10T08:36:09;100132.88;;;12.02;47.07
55540;BME280;41384;51.418;7.286;2023-04-10T08:38:36;100138.38;;;12.14;45.56
55540;BME280;41384;51.418;7.286;2023-04-10T08:41:02;100138.72;;;12.24;45.64
55540;BME280;41384;51.418;7.286;2023-04-10T08:43:27;100131.16;;;12.35;46.01
55540;BME280;41384;51.418;7.286;2023-04-10T08:45:52;100135.78;;;12.53;46.50
55540;BME280;41384;51.418;7.286;2023-04-10T08:48:19;100116.38;;;12.59;44.76
55540;BME280;41384;51.418;7.286;2023-04-10T08:50:45;100111.25;;;12.64;45.33
55540;BME280;41384;51.418;7.286;2023-04-10T08:53:13;100115.88;;;12.76;45.32
55540;BME280;41384;51.418;7.286;2023-04-10T08:55:39;100108.84;;;12.95;45.26
55540;BME280;41384;51.418;7.286;2023-04-10T08:58:06;100094.13;;;12.99;44.76
55540;BME280;41384;51.418;7.286;2023-04-10T09:00:34;100097.53;;;13.06;44.26
55540;BME280;41384;51.418;7.286;2023-04-10T09:03:03;100093.38;;;13.17;45.07
55540;BME280;41384;51.418;7.286;2023-04-10T09:05:29;100075.41;;;13.19;43.44
55540;BME280;41384;51.418;7.286;2023-04-10T09:07:55;100082.28;;;13.27;43.72
55540;BME280;41384;51.418;7.286;2023-04-10T09:10:21;100078.59;;;13.28;41.75
55540;BME280;41384;51.418;7.286;2023-04-10T09:12:47;100073.94;;;13.23;41.07
55540;BME280;41384;51.418;7.286;2023-04-10T09:15:13;100072.31;;;13.22;41.16
55540;BME280;41384;51.418;7.286;2023-04-10T09:17:55;100068.88;;;13.22;41.35
55540;BME280;41384;51.418;7.286;2023-04-10T09:20:22;100070.88;;;13.26;41.02
55540;BME280;41384;51.418;7.286;2023-04-10T09:22:48;100075.75;;;13.30;40.55
55540;BME280;41384;51.418;7.286;2023-04-10T09:25:30;100058.44;;;13.27;40.67
55540;BME280;41384;51.418;7.286;2023-04-10T09:28:05;100064.56;;;13.27;40.89
55540;BME280;41384;51.418;7.286;2023-04-10T09:30:36;100060.59;;;13.37;41.37
55540;BME280;41384;51.418;7.286;2023-04-10T09:33:01;100059.94;;;13.41;42.29
55540;BME280;41384;51.418;7.286;2023-04-10T09:35:37;100061.09;;;13.52;42.62
55540;BME280;41384;51.418;7.286;2023-04-10T09:38:13;100061.53;;;13.68;42.01
55540;BME280;41384;51.418;7.286;2023-04-10T09:40:39;100051.13;;;13.66;43.02
55540;BME280;41384;51.418;7.286;2023-04-10T09:43:22;100065.06;;;13.80;41.79
55540;BME280;41384;51.418;7.286;2023-04-10T09:45:49;100064.19;;;13.86;42.47
55540;BME280;41384;51.418;7.286;2023-04-10T09:48:15;100068.16;;;13.77;40.79
55540;BME280;41384;51.418;7.286;2023-04-10T09:50:41;100070.81;;;13.77;40.78
55540;BME280;41384;51.418;7.286;2023-04-10T09:53:11;100067.56;;;13.75;41.02
55540;BME280;41384;51.418;7.286;2023-04-10T09:55:37;100071.91;;;13.69;40.12
55540;BME280;41384;51.418;7.286;2023-04-10T09:58:06;100060.94;;;13.66;39.98
55540;BME280;41384;51.418;7.286;2023-04-10T10:00:37;100054.91;;;13.77;39.67
55540;BME280;41384;51.418;7.286;2023-04-10T10:03:29;100045.41;;;13.88;40.01
55540;BME280;41384;51.418;7.286;2023-04-10T10:05:53;100033.53;;;13.91;40.21
55540;BME280;41384;51.418;7.286;2023-04-10T10:08:19;100034.97;;;14.05;40.48
55540;BME280;41384;51.418;7.286;2023-04-10T10:10:47;100054.50;;;14.11;41.30
55540;BME280;41384;51.418;7.286;2023-04-10T10:13:27;100040.78;;;14.14;39.52
55540;BME280;41384;51.418;7.286;2023-04-10T10:16:19;100031.94;;;14.20;38.46
55540;BME280;41384;51.418;7.286;2023-04-10T10:21:32;100019.97;;;14.29;39.61
55540;BME280;41384;51.418;7.286;2023-04-10T10:23:59;100018.59;;;14.39;39.75
55540;BME280;41384;51.418;7.286;2023-04-10T10:26:27;100018.84;;;14.37;38.71
55540;BME280;41384;51.418;7.286;2023-04-10T10:28:55;100022.16;;;14.33;38.12
55540;BME280;41384;51.418;7.286;2023-04-10T10:31:20;100013.28;;;14.39;38.18
55540;BME280;41384;51.418;7.286;2023-04-10T10:33:50;99997.59;;;14.37;37.97
55540;BME280;41384;51.418;7.286;2023-04-10T10:36:18;100007.41;;;14.37;38.70
55540;BME280;41384;51.418;7.286;2023-04-10T10:38:52;99993.09;;;14.38;38.57
55540;BME280;41384;51.418;7.286;2023-04-10T10:41:27;99997.34;;;14.27;39.01
55540;BME280;41384;51.418;7.286;2023-04-10T10:44:07;99990.09;;;14.34;39.69
55540;BME280;41384;51.418;7.286;2023-04-10T10:46:41;99982.13;;;14.46;39.50
55540;BME280;41384;51.418;7.286;2023-04-10T10:49:07;99985.50;;;14.53;40.47
55540;BME280;41384;51.418;7.286;2023-04-10T10:51:49;99965.56;;;14.74;39.37
55540;BME280;41384;51.418;7.286;2023-04-10T10:54:32;99958.09;;;14.83;40.01
55540;BME280;41384;51.418;7.286;2023-04-10T10:56:58;99955.66;;;14.94;39.76
55540;BME280;41384;51.418;7.286;2023-04-10T11:02:16;99942.00;;;14.90;39.45
55540;BME280;41384;51.418;7.286;2023-04-10T11:04:47;99927.31;;;14.99;38.83
55540;BME280;41384;51.418;7.286;2023-04-10T11:07:14;99937.38;;;15.09;39.29
55540;BME280;41384;51.418;7.286;2023-04-10T11:09:53;99926.16;;;15.07;39.75
55540;BME280;41384;51.418;7.286;2023-04-10T11:12:24;99914.84;;;15.12;39.58
55540;BME280;41384;51.418;7.286;2023-04-10T11:15:01;99906.06;;;15.11;37.84
55540;BME280;41384;51.418;7.286;2023-04-10T11:17:49;99907.19;;;15.15;37.44
55540;BME280;41384;51.418;7.286;2023-04-10T11:20:19;99904.78;;;15.14;37.53
55540;BME280;41384;51.418;7.286;2023-04-10T11:23:06;99904.06;;;15.18;38.24
55540;BME280;41384;51.418;7.286;2023-04-10T11:25:46;99889.88;;;15.13;37.88
55540;BME280;41384;51.418;7.286;2023-04-10T11:31:16;99886.72;;;15.28;38.40
55540;BME280;41384;51.418;7.286;2023-04-10T11:33:45;99873.50;;;15.33;39.31
55540;BME280;41384;51.418;7.286;2023-04-10T11:36:13;99868.91;;;15.28;39.24
55540;BME280;41384;51.418;7.286;2023-04-10T11:38:52;99870.84;;;15.33;39.58
55540;BME280;41384;51.418;7.286;2023-04-10T11:41:17;99872.94;;;15.31;37.77
55540;BME280;41384;51.418;7.286;2023-04-10T11:43:43;99851.75;;;15.36;38.12
55540;BME280;41384;51.418;7.286;2023-04-10T11:46:08;99846.91;;;15.33;37.08
55540;BME280;41384;51.418;7.286;2023-04-10T11:48:34;99846.13;;;15.32;37.22
55540;BME280;41384;51.418;7.286;2023-04-10T11:51:09;99849.84;;;15.31;37.65
55540;BME280;41384;51.418;7.286;2023-04-10T11:53:34;99849.34;;;15.35;37.56
55540;BME280;41384;51.418;7.286;2023-04-10T11:56:00;99852.06;;;15.52;37.98
55540;BME280;41384;51.418;7.286;2023-04-10T11:58:26;99838.53;;;15.53;37.91
55540;BME280;41384;51.418;7.286;2023-04-10T12:00:56;99836.38;;;15.67;38.00
55540;BME280;41384;51.418;7.286;2023-04-10T12:05:56;99827.00;;;15.65;39.21
55540;BME280;41384;51.418;7.286;2023-04-10T12:08:29;99820.91;;;15.64;37.51
55540;BME280;41384;51.418;7.286;2023-04-10T12:10:55;99812.34;;;15.62;37.16
55540;BME280;41384;51.418;7.286;2023-04-10T12:13:27;99818.91;;;15.71;37.41
55540;BME280;41384;51.418;7.286;2023-04-10T12:15:53;99815.66;;;15.69;37.31
55540;BME280;41384;51.418;7.286;2023-04-10T12:18:20;99804.28;;;15.74;36.25
55540;BME280;41384;51.418;7.286;2023-04-10T12:20:45;99794.84;;;15.83;37.30
55540;BME280;41384;51.418;7.286;2023-04-10T12:23:11;99795.50;;;15.73;35.54
55540;BME280;41384;51.418;7.286;2023-04-10T12:25:38;99795.25;;;15.75;35.45
55540;BME280;41384;51.418;7.286;2023-04-10T12:28:03;99805.59;;;15.71;36.37
55540;BME280;41384;51.418;7.286;2023-04-10T12:30:28;99784.88;;;15.73;36.31
55540;BME280;41384;51.418;7.286;2023-04-10T12:32:54;99789.38;;;15.73;36.07
55540;BME280;41384;51.418;7.286;2023-04-10T12:35:19;99775.56;;;15.76;35.40
55540;BME280;41384;51.418;7.286;2023-04-10T12:37:46;99773.56;;;15.83;35.03
55540;BME280;41384;51.418;7.286;2023-04-10T12:40:12;99769.41;;;15.87;36.06
55540;BME280;41384;51.418;7.286;2023-04-10T12:42:41;99770.22;;;16.05;35.47
55540;BME280;41384;51.418;7.286;2023-04-10T12:45:07;99771.09;;;16.11;36.13
55540;BME280;41384;51.418;7.286;2023-04-10T12:47:45;99758.25;;;16.25;35.67
55540;BME280;41384;51.418;7.286;2023-04-10T12:50:18;99758.97;;;16.20;34.64
55540;BME280;41384;51.418;7.286;2023-04-10T12:53:01;99755.50;;;16.19;33.54
55540;BME280;41384;51.418;7.286;2023-04-10T12:55:26;99756.94;;;16.27;34.08
55540;BME280;41384;51.418;7.286;2023-04-10T12:57:53;99758.97;;;16.20;33.05
55540;BME280;41384;51.418;7.286;2023-04-10T13:00:19;99750.91;;;16.15;32.31
55540;BME280;41384;51.418;7.286;2023-04-10T13:02:46;99758.19;;;16.19;33.06
55540;BME280;41384;51.418;7.286;2023-04-10T13:05:12;99743.53;;;16.22;32.80
55540;BME280;41384;51.418;7.286;2023-04-10T13:07:37;99745.66;;;16.20;32.26
55540;BME280;41384;51.418;7.286;2023-04-10T13:10:04;99735.75;;;16.15;32.45
55540;BME280;41384;51.418;7.286;2023-04-10T13:12:30;99737.84;;;16.13;33.15
55540;BME280;41384;51.418;7.286;2023-04-10T13:14:55;99729.59;;;16.15;33.09